Time;durP1;ratioP1;P1;durP2;ratioP2;P2;SDS_P1;SDS_P2;PMS_P1;PMS_P2;Temp;Humidity;BMP_temperature;BMP_pressure;BME280_temperature;BME280_humidity;BME280_pressure;Samples;Min_cycle;Max_cycle;Signal;HPM_P1;HPM_P2
2020/12/28 00:00:22;;;;;;;32.70;20.10;;;;;;;2.61;96.29;97640.38;5076257;28;20032;-78
2020/12/28 00:02:48;;;;;;;33.97;19.10;;;;;;;2.61;96.17;97637.84;5069027;28;20502;-79
2020/12/28 00:05:13;;;;;;;35.00;20.88;;;;;;;2.64;96.39;97632.78;5071405;28;20035;-79
2020/12/28 00:07:39;;;;;;;34.97;21.02;;;;;;;2.59;96.49;97647.09;5067508;28;20534;-80
2020/12/28 00:10:10;;;;;;;41.63;21.02;;;;;;;2.63;96.44;97643.78;5069060;28;20020;-78
2020/12/28 00:12:48;;;;;;;37.00;20.63;;;;;;;2.56;96.49;97642.88;5066525;28;20020;-78
2020/12/28 00:15:33;;;;;;;37.67;20.13;;;;;;;2.57;96.44;97638.66;5080117;28;20032;-79
2020/12/28 00:18:02;;;;;;;32.70;19.07;;;;;;;2.58;96.37;97636.13;5087043;28;20413;-80
2020/12/28 00:20:30;;;;;;;32.67;17.70;;;;;;;2.54;96.31;97639.50;5084655;28;20027;-80
2020/12/28 00:22:56;;;;;;;32.83;16.20;;;;;;;2.47;96.13;97628.50;5068487;28;20043;-78
2020/12/28 00:25:28;;;;;;;34.28;17.25;;;;;;;2.40;96.36;97631.00;5063593;28;20444;-77
2020/12/28 00:27:55;;;;;;;28.13;16.57;;;;;;;2.38;95.63;97627.63;5089798;28;20517;-80
2020/12/28 00:30:20;;;;;;;28.37;17.33;;;;;;;2.43;95.89;97621.72;5069138;28;20024;-78
2020/12/28 00:32:46;;;;;;;33.53;17.73;;;;;;;2.46;96.07;97631.88;5070294;28;20053;-78
2020/12/28 00:35:12;;;;;;;35.35;17.92;;;;;;;2.41;95.90;97631.00;5095395;28;20020;-79
2020/12/28 00:37:38;;;;;;;42.42;19.70;;;;;;;2.43;96.18;97626.78;5083663;28;20107;-79
2020/12/28 00:40:04;;;;;;;;;;;;;;;2.36;96.33;97625.09;5068017;28;20025;-78
2020/12/28 00:42:30;;;;;;;37.57;17.93;;;;;;;2.35;96.11;97625.94;5067534;28;20386;-79
2020/12/28 00:44:56;;;;;;;36.10;18.15;;;;;;;2.27;96.30;97629.25;5093319;28;20031;-79
2020/12/28 00:47:21;;;;;;;34.40;17.75;;;;;;;2.27;96.57;97637.69;5067698;28;20466;-79
2020/12/28 00:49:46;;;;;;;36.15;18.73;;;;;;;2.26;96.38;97636.00;5091213;28;20022;-77
2020/12/28 00:52:11;;;;;;;41.23;19.03;;;;;;;2.29;96.19;97638.56;5085457;28;20440;-78
2020/12/28 00:54:37;;;;;;;34.43;17.80;;;;;;;2.25;96.27;97633.44;5087331;28;20123;-79
2020/12/28 00:57:02;;;;;;;30.40;16.35;;;;;;;2.18;96.38;97635.97;5071033;28;20292;-79
2020/12/28 00:59:27;;;;;;;31.17;16.63;;;;;;;2.12;96.45;97635.09;5066033;28;20051;-79
2020/12/28 01:01:57;;;;;;;32.35;17.02;;;;;;;2.14;95.94;97636.78;5066078;28;20514;-78
2020/12/28 01:04:23;;;;;;;33.27;16.43;;;;;;;2.07;96.15;97642.66;5070580;28;20512;-79
2020/12/28 01:06:48;;;;;;;36.63;19.23;;;;;;;2.00;96.42;97640.94;5064827;28;20119;-79
2020/12/28 01:09:14;;;;;;;36.55;18.98;;;;;;;2.02;96.34;97635.88;5068989;28;20440;-78
2020/12/28 01:11:39;;;;;;;38.42;19.73;;;;;;;2.06;96.48;97630.00;5085443;28;20028;-78
2020/12/28 01:14:05;;;;;;;39.40;18.83;;;;;;;1.96;96.60;97635.84;5090300;28;20031;-78
2020/12/28 01:16:30;;;;;;;31.13;17.90;;;;;;;1.88;96.67;97636.63;5066909;28;20024;-78
2020/12/28 01:18:55;;;;;;;39.72;20.23;;;;;;;1.84;96.86;97642.50;5088771;28;20103;-78
2020/12/28 01:21:21;;;;;;;40.70;20.33;;;;;;;1.78;96.68;97634.88;5086210;28;20024;-78
2020/12/28 01:23:47;;;;;;;43.67;21.02;;;;;;;1.78;96.97;97629.81;5068209;28;20048;-78
2020/12/28 01:26:16;;;;;;;40.47;20.90;;;;;;;1.72;96.66;97631.47;5067646;28;20024;-78
2020/12/28 01:28:42;;;;;;;42.83;22.30;;;;;;;1.69;97.08;97624.72;5067409;28;20034;-78
2020/12/28 01:31:07;;;;;;;58.42;23.40;;;;;;;1.74;96.96;97635.72;5069977;28;20142;-78
2020/12/28 01:33:33;;;;;;;46.72;23.20;;;;;;;1.77;97.02;97633.19;5089172;28;20031;-78
2020/12/28 01:35:58;;;;;;;51.73;24.23;;;;;;;1.72;97.34;97629.78;5067049;28;20027;-78
2020/12/28 01:38:23;;;;;;;41.47;22.37;;;;;;;1.69;97.06;97637.38;5071226;28;20289;-78
2020/12/28 01:40:49;;;;;;;48.35;23.48;;;;;;;1.81;97.21;97639.13;5071034;28;20550;-79
2020/12/28 01:43:14;;;;;;;43.03;22.50;;;;;;;1.70;97.53;97644.13;5073540;28;20028;-78
2020/12/28 01:45:39;;;;;;;51.22;26.17;;;;;;;1.84;97.50;97645.03;5065063;28;20025;-77
2020/12/28 01:48:05;;;;;;;50.60;25.70;;;;;;;1.78;97.37;97645.00;5071254;28;20020;-78
2020/12/28 01:50:30;;;;;;;54.55;27.85;;;;;;;1.86;97.64;97656.03;5068101;28;20032;-78
2020/12/28 01:52:56;;;;;;;59.72;28.75;;;;;;;1.93;97.37;97653.53;5091972;28;20031;-77
2020/12/28 01:55:21;;;;;;;57.47;28.95;;;;;;;2.31;97.57;97649.56;5087182;28;20551;-78
2020/12/28 01:57:47;;;;;;;51.42;25.13;;;;;;;2.33;97.20;97652.09;5084593;28;20056;-78
2020/12/28 02:00:12;;;;;;;63.15;32.88;;;;;;;2.29;97.08;97653.75;5088599;28;20043;-78
2020/12/28 02:02:39;;;;;;;63.28;32.08;;;;;;;2.26;97.27;97655.41;5080596;28;20482;-78
2020/12/28 02:05:04;;;;;;;63.72;32.15;;;;;;;2.30;97.42;97660.53;5088589;28;20028;-78
2020/12/28 02:07:34;;;;;;;63.47;32.63;;;;;;;2.35;97.44;97661.38;5070607;28;20119;-78
2020/12/28 02:10:05;;;;;;;63.97;34.33;;;;;;;2.35;97.49;97661.38;5070685;28;20024;-79
2020/12/28 02:12:30;;;;;;;69.83;32.93;;;;;;;2.41;97.54;97663.94;5068049;28;20425;-78
2020/12/28 02:14:56;;;;;;;69.60;32.23;;;;;;;2.43;97.54;97663.94;5063444;28;20025;-77
2020/12/28 02:17:23;;;;;;;71.77;33.40;;;;;;;2.59;97.67;97667.38;5060998;28;20304;-78
2020/12/28 02:19:48;;;;;;;69.07;32.87;;;;;;;2.59;97.26;97667.38;5086258;28;20036;-78
2020/12/28 02:22:13;;;;;;;77.05;35.38;;;;;;;2.64;97.45;97669.13;5075693;28;20077;-78
2020/12/28 02:24:39;;;;;;;79.90;34.37;;;;;;;2.67;97.31;97665.75;5070865;28;20046;-79
2020/12/28 02:27:04;;;;;;;76.27;34.10;;;;;;;2.69;97.09;97666.59;5067476;28;20387;-77
2020/12/28 02:29:29;;;;;;;88.10;37.13;;;;;;;2.63;96.99;97661.50;5084527;28;20028;-78
2020/12/28 02:31:54;;;;;;;81.38;34.90;;;;;;;2.67;97.08;97661.53;5087616;28;20056;-79
2020/12/28 02:34:20;;;;;;;82.22;35.65;;;;;;;2.70;97.12;97675.91;5067550;28;20020;-79
2020/12/28 02:36:45;;;;;;;82.77;36.53;;;;;;;2.65;97.14;97680.94;5072066;28;20107;-78
2020/12/28 02:39:10;;;;;;;75.20;35.63;;;;;;;2.68;97.17;97680.97;5071436;28;20027;-78
2020/12/28 02:41:36;;;;;;;75.28;32.80;;;;;;;2.77;96.86;97682.66;5067097;28;20795;-78
2020/12/28 02:44:01;;;;;;;79.77;33.57;;;;;;;2.73;97.19;97693.66;5066675;28;20039;-79
2020/12/28 02:46:26;;;;;;;75.87;33.63;;;;;;;2.79;97.09;97696.19;5063054;28;20039;-78
2020/12/28 02:48:51;;;;;;;78.40;36.60;;;;;;;2.83;96.80;97692.81;5075792;28;20776;-78
2020/12/28 02:51:17;;;;;;;85.63;34.47;;;;;;;2.83;96.87;97692.81;5083186;28;20139;-79
2020/12/28 02:53:42;;;;;;;78.80;35.43;;;;;;;2.85;96.97;97696.22;5079085;28;20028;-80
2020/12/28 02:56:07;;;;;;;83.43;35.93;;;;;;;2.87;96.82;97694.53;5082629;28;20837;-78
2020/12/28 02:58:32;;;;;;;78.10;33.87;;;;;;;2.91;97.02;97686.09;5070409;28;20028;-77
2020/12/28 03:00:58;;;;;;;75.20;33.50;;;;;;;2.95;96.72;97695.41;5087190;28;20369;-79
2020/12/28 03:03:23;;;;;;;76.57;33.80;;;;;;;2.96;96.36;97688.66;5074143;28;20023;-78
2020/12/28 03:05:48;;;;;;;60.67;28.57;;;;;;;2.92;95.91;97681.84;5072545;28;20028;-78
2020/12/28 03:08:13;;;;;;;76.23;33.17;;;;;;;2.94;95.74;97677.66;5057089;28;20469;-78
2020/12/28 03:10:39;;;;;;;75.37;32.70;;;;;;;2.98;95.99;97680.22;5057731;28;20024;-79
2020/12/28 03:13:04;;;;;;;74.07;32.90;;;;;;;2.92;96.19;97676.78;5070534;28;20862;-78
2020/12/28 03:15:29;;;;;;;76.23;34.03;;;;;;;2.91;96.08;97675.94;5070054;28;20032;-78
2020/12/28 03:17:54;;;;;;;83.63;36.07;;;;;;;2.95;96.13;97677.69;5072044;28;20140;-77
2020/12/28 03:20:20;;;;;;;83.67;32.47;;;;;;;2.93;95.92;97669.22;5069496;28;20301;-78
2020/12/28 03:22:45;;;;;;;86.57;35.17;;;;;;;2.97;95.97;97670.91;5085502;28;20109;-77
2020/12/28 03:25:10;;;;;;;81.03;35.17;;;;;;;2.93;96.09;97671.75;5062230;28;20074;-77
2020/12/28 03:27:35;;;;;;;78.40;32.73;;;;;;;2.88;96.09;97668.34;5064041;28;20445;-77
2020/12/28 03:30:01;;;;;;;69.73;29.90;;;;;;;2.88;96.06;97678.47;5068786;28;20040;-78
2020/12/28 03:32:26;;;;;;;62.43;28.17;;;;;;;2.87;95.83;97669.19;5060941;28;20349;-78
2020/12/28 03:34:51;;;;;;;58.63;26.57;;;;;;;2.87;95.88;97670.88;5067103;28;20043;-78
2020/12/28 03:37:17;;;;;;;54.57;27.47;;;;;;;2.84;95.38;97674.25;5067156;28;20297;-77
2020/12/28 03:39:42;;;;;;;58.40;25.80;;;;;;;2.76;95.47;97683.50;5065717;28;20081;-78
2020/12/28 03:42:07;;;;;;;53.70;25.90;;;;;;;2.69;95.57;97679.28;5063983;28;20096;-79
2020/12/28 03:44:33;;;;;;;60.45;29.35;;;;;;;2.75;95.52;97672.53;5064441;28;20051;-79
2020/12/28 03:46:58;;;;;;;57.60;24.47;;;;;;;2.83;95.43;97672.53;5060759;28;20048;-78
2020/12/28 03:49:23;;;;;;;68.73;31.93;;;;;;;2.83;95.52;97669.16;5091978;28;20345;-78
2020/12/28 03:51:48;;;;;;;75.68;30.58;;;;;;;2.80;95.56;97670.00;5085472;28;20020;-79
2020/12/28 03:54:14;;;;;;;78.20;35.13;;;;;;;2.70;95.50;97673.34;5068833;28;20051;-79
2020/12/28 03:56:39;;;;;;;91.03;39.07;;;;;;;2.73;96.08;97680.97;5086799;28;20278;-78
2020/12/28 03:59:04;;;;;;;95.70;37.53;;;;;;;2.77;96.08;97677.59;5087147;28;20284;-78
2020/12/28 04:01:29;;;;;;;89.63;38.77;;;;;;;2.75;96.15;97684.34;5067172;28;20283;-79
2020/12/28 04:03:55;;;;;;;94.30;37.27;;;;;;;2.74;96.17;97677.59;5061325;28;20020;-79
2020/12/28 04:06:20;;;;;;;93.68;36.70;;;;;;;2.65;95.94;97685.16;5073451;28;20043;-79
2020/12/28 04:08:45;;;;;;;85.43;37.40;;;;;;;2.80;96.15;97692.81;5085477;28;20031;-78
2020/12/28 04:11:11;;;;;;;89.93;37.37;;;;;;;2.77;96.41;97687.75;5094212;28;20323;-78
2020/12/28 04:13:36;;;;;;;84.20;34.53;;;;;;;2.75;95.84;97684.34;5087585;28;20533;-79
2020/12/28 04:16:01;;;;;;;102.17;37.63;;;;;;;2.79;95.94;97686.06;5071441;28;20021;-78
2020/12/28 04:18:27;;;;;;;98.28;36.67;;;;;;;2.74;95.92;97688.56;5057941;28;20282;-79
2020/12/28 04:20:52;;;;;;;93.55;36.63;;;;;;;2.83;96.10;97686.91;5088171;28;20064;-79
2020/12/28 04:23:17;;;;;;;100.23;37.77;;;;;;;2.81;96.28;97676.75;5083172;28;20493;-78
2020/12/28 04:25:42;;;;;;;100.18;37.22;;;;;;;2.81;95.99;97674.22;5071415;28;20114;-77
2020/12/28 04:28:08;;;;;;;99.43;38.43;;;;;;;2.76;96.04;97679.28;5078455;28;20474;-78
2020/12/28 04:30:33;;;;;;;104.37;40.57;;;;;;;2.76;96.21;97670.84;5086119;28;20032;-78
2020/12/28 04:32:58;;;;;;;102.23;39.60;;;;;;;2.82;96.16;97670.84;5093403;28;20028;-79
2020/12/28 04:35:24;;;;;;;104.13;37.50;;;;;;;2.86;96.25;97674.25;5090846;28;20281;-79
2020/12/28 04:37:49;;;;;;;99.03;40.43;;;;;;;2.85;96.07;97677.63;5088599;28;20281;-78
2020/12/28 04:40:14;;;;;;;107.55;39.67;;;;;;;2.80;96.03;97681.00;5064191;28;20020;-78
2020/12/28 04:42:43;;;;;;;88.07;37.53;;;;;;;2.87;96.09;97678.47;5071423;28;20094;-79
2020/12/28 04:45:10;;;;;;;88.47;36.77;;;;;;;2.91;95.78;97680.16;5082865;28;20289;-77
2020/12/28 04:47:36;;;;;;;68.80;29.77;;;;;;;2.93;95.48;97681.91;5073762;28;20089;-78
2020/12/28 04:50:02;;;;;;;82.50;35.63;;;;;;;2.82;95.67;97673.38;5082165;28;20086;-78
2020/12/28 04:52:28;;;;;;;79.27;34.80;;;;;;;2.89;95.88;97675.09;5071794;28;20485;-80
2020/12/28 04:54:53;;;;;;;82.85;33.50;;;;;;;2.86;95.91;97670.03;5069263;28;20115;-78
2020/12/28 04:57:19;;;;;;;76.13;32.97;;;;;;;2.92;95.41;97676.78;5066671;28;20051;-79
2020/12/28 04:59:44;;;;;;;63.35;27.73;;;;;;;2.94;95.06;97680.22;5089656;28;20034;-78
2020/12/28 05:02:10;;;;;;;68.28;32.75;;;;;;;2.74;95.40;97686.03;5072804;28;20024;-79
2020/12/28 05:04:35;;;;;;;68.45;32.42;;;;;;;2.74;95.49;97687.72;5072766;28;20024;-78
2020/12/28 05:07:06;;;;;;;81.27;34.77;;;;;;;2.62;95.45;97685.16;5088982;28;20106;-78
2020/12/28 05:09:32;;;;;;;72.30;33.73;;;;;;;2.44;95.99;97688.44;5072415;28;20278;-78
2020/12/28 05:11:59;;;;;;;73.75;34.65;;;;;;;2.37;96.05;97690.09;5086567;28;20029;-80
2020/12/28 05:14:25;;;;;;;81.83;37.03;;;;;;;2.34;96.20;97691.78;5074255;28;20030;-80
2020/12/28 05:17:00;;;;;;;93.10;38.17;;;;;;;2.27;96.40;97687.50;5088507;28;20023;-77
2020/12/28 05:19:26;;;;;;;82.87;35.70;;;;;;;2.29;96.49;97688.38;5085540;28;20043;-78
2020/12/28 05:21:56;;;;;;;81.05;37.95;;;;;;;2.28;96.63;97677.41;5091315;28;20054;-79
2020/12/28 05:24:21;;;;;;;79.40;33.17;;;;;;;2.32;96.23;97679.09;5071617;28;20059;-79
2020/12/28 05:26:47;;;;;;;67.18;33.10;;;;;;;2.31;96.28;97674.88;5071682;28;20545;-78
2020/12/28 05:29:16;;;;;;;67.72;32.38;;;;;;;2.32;96.16;97683.31;5068508;28;20042;-79
2020/12/28 05:31:44;;;;;;;64.30;30.63;;;;;;;2.32;96.01;97671.50;5087144;28;20071;-78
2020/12/28 05:34:20;;;;;;;63.53;28.87;;;;;;;2.35;96.07;97675.72;5072743;28;20024;-78
2020/12/28 05:36:48;;;;;;;53.25;26.20;;;;;;;2.36;95.68;97687.56;5064571;28;20021;-80
2020/12/28 05:39:15;;;;;;;53.43;27.03;;;;;;;2.37;96.12;97682.50;5068045;28;20020;-79
2020/12/28 05:42:12;;;;;;;57.27;28.60;;;;;;;2.30;96.63;97675.72;5091343;28;20027;-79
2020/12/28 05:44:44;;;;;;;67.80;31.50;;;;;;;2.29;96.46;97679.09;5074229;28;20047;-78
2020/12/28 05:47:17;;;;;;;66.57;32.73;;;;;;;2.27;96.73;97675.66;5072585;28;20020;-80
2020/12/28 05:49:44;;;;;;;52.33;27.43;;;;;;;2.29;96.23;97683.31;5093218;28;20027;-78
2020/12/28 05:52:11;;;;;;;64.97;31.27;;;;;;;2.38;96.32;97678.28;5072316;28;20016;-79
2020/12/28 05:54:37;;;;;;;67.40;31.50;;;;;;;2.42;95.99;97677.44;5080828;28;20052;-79
2020/12/28 05:57:04;;;;;;;59.10;30.85;;;;;;;2.44;95.80;97671.56;5068278;28;20074;-79
2020/12/28 05:59:34;;;;;;;58.23;30.47;;;;;;;2.42;95.78;97680.00;5068151;28;20040;-78
2020/12/28 06:02:00;;;;;;;50.23;26.37;;;;;;;2.20;95.61;97684.06;5090374;28;20559;-81
2020/12/28 06:04:26;;;;;;;41.50;21.67;;;;;;;2.09;96.09;97685.72;5068287;28;20031;-79
2020/12/28 06:06:59;;;;;;;50.50;22.67;;;;;;;2.05;96.21;97678.94;5069037;28;20482;-78
2020/12/28 06:09:26;;;;;;;45.77;23.13;;;;;;;2.05;96.38;97678.94;5089423;28;20707;-77
2020/12/28 06:12:20;;;;;;;;;;;;;;;2.06;96.40;97694.13;5086988;28;20027;-77
2020/12/28 06:14:45;;;;;;;58.50;26.07;;;;;;;2.04;96.44;97697.50;5056407;28;19912;-80
2020/12/28 06:17:12;;;;;;;44.07;22.03;;;;;;;2.16;96.45;97697.56;5087854;28;20024;-77
2020/12/28 06:19:39;;;;;;;63.10;27.53;;;;;;;2.15;96.56;97703.47;5090705;28;20293;-78
2020/12/28 06:22:22;;;;;;;66.00;27.87;;;;;;;2.19;96.34;97712.78;5072518;28;20051;-78
2020/12/28 06:25:07;;;;;;;59.37;27.40;;;;;;;2.32;95.95;97704.44;5066916;28;20273;-78
2020/12/28 06:27:40;;;;;;;59.73;27.97;;;;;;;2.26;95.68;97704.38;5065613;28;20059;-78
2020/12/28 06:30:21;;;;;;;62.10;27.73;;;;;;;2.33;96.04;97696.00;5084214;28;20024;-77
2020/12/28 06:33:01;;;;;;;63.03;27.03;;;;;;;2.42;95.82;97696.03;5070637;28;20019;-78
2020/12/28 06:35:30;;;;;;;59.30;27.47;;;;;;;2.42;95.81;97695.19;5087473;28;20031;-78
2020/12/28 06:37:59;;;;;;;55.30;25.80;;;;;;;2.44;95.51;97704.47;5071386;28;20089;-77
2020/12/28 06:40:36;;;;;;;55.73;25.50;;;;;;;2.49;95.56;97707.03;5083272;28;20024;-78
2020/12/28 06:43:11;;;;;;;55.33;26.00;;;;;;;2.50;95.53;97712.13;5062309;28;20032;-79
2020/12/28 06:45:40;;;;;;;50.43;23.27;;;;;;;2.46;94.93;97715.47;5066518;28;20043;-79
2020/12/28 06:48:26;;;;;;;49.50;22.53;;;;;;;2.57;95.26;97707.91;5067431;28;20024;-78
2020/12/28 06:50:53;;;;;;;47.60;23.07;;;;;;;2.57;95.33;97717.19;5085634;28;20182;-79
2020/12/28 06:53:20;;;;;;;55.63;22.93;;;;;;;2.64;95.69;97722.34;5086769;28;20028;-79
2020/12/28 06:55:45;;;;;;;42.57;19.90;;;;;;;2.62;94.17;97713.03;5077915;28;20123;-78
2020/12/28 06:58:13;;;;;;;38.85;19.40;;;;;;;2.65;94.53;97713.03;5084117;28;20037;-79
2020/12/28 07:00:38;;;;;;;38.33;19.17;;;;;;;2.69;94.17;97709.69;5065719;28;20028;-77
2020/12/28 07:03:11;;;;;;;42.28;20.08;;;;;;;2.70;94.84;97711.38;5066517;28;20024;-78
2020/12/28 07:05:37;;;;;;;43.40;20.20;;;;;;;2.69;94.82;97709.69;5087010;28;20028;-77
2020/12/28 07:08:02;;;;;;;43.60;20.25;;;;;;;2.78;94.95;97704.63;5081702;28;20136;-78
2020/12/28 07:10:28;;;;;;;36.50;18.23;;;;;;;2.83;93.62;97704.66;5082432;28;20505;-78
2020/12/28 07:13:01;;;;;;;36.40;19.40;;;;;;;2.85;93.96;97710.56;5085227;28;20131;-76
2020/12/28 07:15:26;;;;;;;39.33;17.27;;;;;;;2.86;93.67;97715.66;5083509;28;20357;-78
2020/12/28 07:17:51;;;;;;;39.67;17.20;;;;;;;2.86;94.46;97710.56;5066008;28;20063;-76
2020/12/28 07:20:17;;;;;;;25.73;12.60;;;;;;;2.86;93.42;97712.25;5081320;28;20290;-77
2020/12/28 07:22:43;;;;;;;24.70;15.13;;;;;;;2.84;92.87;97708.88;5082589;28;20534;-77
2020/12/28 07:25:10;;;;;;;27.90;16.08;;;;;;;2.83;93.72;97718.16;5064438;28;20072;-77
2020/12/28 07:27:38;;;;;;;34.07;16.63;;;;;;;2.86;93.17;97717.34;5062166;28;20051;-77
2020/12/28 07:30:09;;;;;;;38.67;17.77;;;;;;;2.87;93.49;97719.88;5083288;28;20420;-77
2020/12/28 07:32:34;;;;;;;36.63;18.23;;;;;;;2.91;93.32;97713.97;5080659;28;20100;-78
2020/12/28 07:34:59;;;;;;;36.58;20.27;;;;;;;2.85;93.88;97718.19;5064183;28;20064;-77
2020/12/28 07:37:27;;;;;;;40.95;20.15;;;;;;;2.80;94.09;97720.69;5071099;28;20505;-78
2020/12/28 07:39:52;;;;;;;34.00;20.77;;;;;;;2.80;94.09;97724.06;5086462;28;20028;-78
2020/12/28 07:42:19;;;;;;;35.00;19.33;;;;;;;2.85;92.92;97723.25;5061301;28;20035;-78
2020/12/28 07:44:51;;;;;;;34.47;18.30;;;;;;;2.82;92.79;97726.63;5061443;28;20277;-77
2020/12/28 07:47:20;;;;;;;35.57;18.97;;;;;;;2.71;93.56;97729.13;5077720;28;20033;-78
2020/12/28 07:49:48;;;;;;;38.27;19.63;;;;;;;2.68;93.97;97735.88;5060586;28;20093;-77
2020/12/28 07:52:24;;;;;;;38.70;18.83;;;;;;;2.66;93.78;97737.53;5062233;28;20066;-77
2020/12/28 07:55:02;;;;;;;37.67;18.90;;;;;;;2.71;94.05;97740.94;5063250;28;20047;-77
2020/12/28 07:57:58;;;;;;;38.17;17.83;;;;;;;2.73;94.32;97741.78;5084764;28;20029;-78
2020/12/28 08:00:30;;;;;;;35.60;15.10;;;;;;;2.71;94.14;97739.25;5063834;28;20024;-78
2020/12/28 08:02:55;;;;;;;34.50;15.83;;;;;;;2.68;94.35;97739.25;5083333;28;20064;-78
2020/12/28 08:05:22;;;;;;;23.83;13.87;;;;;;;2.67;94.09;97734.16;5069581;28;20055;-77
2020/12/28 08:07:48;;;;;;;26.87;12.93;;;;;;;2.63;93.71;97732.47;5089093;28;20032;-77
2020/12/28 08:10:14;;;;;;;25.88;12.65;;;;;;;2.68;93.72;97739.25;5079791;28;20095;-77
2020/12/28 08:12:42;;;;;;;23.63;12.55;;;;;;;2.63;93.85;97740.91;5086870;28;20536;-78
2020/12/28 08:15:08;;;;;;;25.47;11.57;;;;;;;2.60;93.44;97740.03;5071740;28;20093;-78
2020/12/28 08:17:33;;;;;;;23.52;11.85;;;;;;;2.55;94.01;97741.69;5086492;28;20374;-78
2020/12/28 08:20:05;;;;;;;32.75;12.57;;;;;;;2.51;94.18;97748.44;5090592;28;20046;-79
2020/12/28 08:22:31;;;;;;;24.97;12.07;;;;;;;2.46;93.97;97740.81;5088078;28;20049;-79
2020/12/28 08:25:01;;;;;;;28.42;13.55;;;;;;;2.53;94.16;97748.44;5073505;28;20536;-78
2020/12/28 08:27:31;;;;;;;25.13;12.20;;;;;;;2.57;93.94;97747.59;5066129;28;20020;-78
2020/12/28 08:29:58;;;;;;;25.60;12.20;;;;;;;2.57;93.99;97760.28;5067704;28;20129;-78
2020/12/28 08:32:29;;;;;;;26.80;11.80;;;;;;;2.60;94.49;97750.16;5072670;28;20100;-78
2020/12/28 08:34:58;;;;;;;19.53;10.93;;;;;;;2.60;94.01;97753.56;5085513;28;20043;-78
2020/12/28 08:37:24;;;;;;;25.27;13.13;;;;;;;2.60;94.42;97748.50;5068895;28;20020;-79
2020/12/28 08:39:50;;;;;;;27.60;13.90;;;;;;;2.69;94.42;97745.16;5085050;28;20086;-79
2020/12/28 08:42:31;;;;;;;24.33;12.52;;;;;;;2.74;94.36;97754.47;5066724;28;20433;-78
2020/12/28 08:44:57;;;;;;;26.27;12.40;;;;;;;2.66;94.21;97755.28;5085374;28;20016;-79
2020/12/28 08:47:24;;;;;;;22.77;11.13;;;;;;;2.63;93.99;97751.06;5068999;28;20016;-80
2020/12/28 08:49:51;;;;;;;29.33;13.10;;;;;;;2.70;94.11;97747.69;5067339;28;20266;-79
2020/12/28 08:52:18;;;;;;;29.00;14.97;;;;;;;2.85;94.25;97741.00;5062953;28;20024;-80
2020/12/28 08:54:57;;;;;;;23.57;11.70;;;;;;;2.90;94.45;97745.25;5066899;28;20027;-79
2020/12/28 08:57:30;;;;;;;22.50;10.07;;;;;;;2.82;93.46;97741.81;5070326;28;20036;-79
2020/12/28 08:59:59;;;;;;;19.60;9.60;;;;;;;2.63;93.43;97745.13;5081323;28;20036;-79
2020/12/28 09:02:26;;;;;;;24.70;10.43;;;;;;;2.59;93.93;97751.00;5069223;28;20466;-77
2020/12/28 09:04:52;;;;;;;18.80;10.00;;;;;;;2.55;93.92;97756.88;5069730;28;20611;-79
2020/12/28 09:07:19;;;;;;;21.58;11.48;;;;;;;2.60;94.47;97755.22;5069741;28;20106;-78
2020/12/28 09:09:48;;;;;;;18.43;11.30;;;;;;;2.49;94.12;97763.63;5080707;28;20524;-79
2020/12/28 09:12:14;;;;;;;24.60;11.87;;;;;;;2.48;94.04;97761.94;5068617;28;20097;-79
2020/12/28 09:14:40;;;;;;;21.70;12.33;;;;;;;2.53;94.34;97761.09;5069313;28;20027;-78
2020/12/28 09:17:05;;;;;;;23.73;10.80;;;;;;;2.52;94.20;97767.84;5085094;28;20024;-79
2020/12/28 09:19:31;;;;;;;26.23;12.35;;;;;;;2.53;94.31;97768.69;5089427;28;20114;-79
2020/12/28 09:21:57;;;;;;;21.25;10.95;;;;;;;2.57;94.30;97771.25;5067686;28;20020;-79
2020/12/28 09:24:23;;;;;;;20.25;11.07;;;;;;;2.60;94.34;97780.56;5066749;28;20035;-79
2020/12/28 09:26:48;;;;;;;19.30;11.23;;;;;;;2.65;94.54;97777.25;5081898;28;20031;-78
2020/12/28 09:29:14;;;;;;;23.23;10.97;;;;;;;2.58;93.74;97782.25;5089631;28;20074;-80
2020/12/28 09:31:39;;;;;;;21.17;11.85;;;;;;;2.56;94.24;97781.38;5066045;28;20298;-79
2020/12/28 09:34:05;;;;;;;21.42;11.27;;;;;;;2.56;94.27;97787.31;5062934;28;20051;-79
2020/12/28 09:36:30;;;;;;;19.70;11.50;;;;;;;2.61;94.19;97790.75;5063366;28;20131;-79
2020/12/28 09:38:55;;;;;;;19.38;9.52;;;;;;;2.57;94.26;97786.47;5085852;28;20086;-78
2020/12/28 09:41:21;;;;;;;21.73;10.20;;;;;;;2.67;94.26;97790.78;5060717;28;20108;-78
2020/12/28 09:43:46;;;;;;;22.92;10.30;;;;;;;2.66;93.70;97789.06;5082725;28;20386;-79
2020/12/28 09:46:11;;;;;;;23.17;10.95;;;;;;;2.76;93.81;97795.88;5087148;28;20028;-79
2020/12/28 09:48:37;;;;;;;23.05;11.40;;;;;;;2.73;93.89;97792.47;5083117;28;20039;-79
2020/12/28 09:51:04;;;;;;;22.42;11.35;;;;;;;2.70;93.67;97800.06;5066522;28;20020;-79
2020/12/28 09:53:29;;;;;;;22.43;11.83;;;;;;;2.85;94.54;97809.44;5072684;28;20027;-80
2020/12/28 09:55:55;;;;;;;26.58;10.73;;;;;;;2.89;93.47;97809.47;5063925;28;20054;-79
2020/12/28 09:58:20;;;;;;;22.40;11.25;;;;;;;2.98;92.93;97806.13;5071362;28;20067;-80
2020/12/28 10:00:45;;;;;;;19.50;10.43;;;;;;;3.10;93.23;97808.72;5067765;28;20024;-79
2020/12/28 10:03:11;;;;;;;19.83;8.37;;;;;;;3.10;92.08;97807.03;5063256;28;20043;-79
2020/12/28 10:05:36;;;;;;;20.05;10.73;;;;;;;3.05;92.53;97803.63;5068463;28;20028;-79
2020/12/28 10:08:02;;;;;;;18.48;10.65;;;;;;;3.17;92.76;97800.28;5082170;28;20032;-80
2020/12/28 10:10:27;;;;;;;19.35;10.90;;;;;;;3.26;92.67;97799.50;5067450;28;20028;-80
2020/12/28 10:12:53;;;;;;;19.45;9.65;;;;;;;3.28;92.20;97796.13;5087186;28;20478;-79
2020/12/28 10:15:18;;;;;;;14.70;9.25;;;;;;;3.24;92.27;97796.94;5065636;28;20761;-78
2020/12/28 10:18:09;;;;;;;15.07;7.88;;;;;;;3.19;92.32;97791.00;5078713;28;20023;-78
2020/12/28 10:20:34;;;;;;;17.90;9.33;;;;;;;3.17;92.66;97795.22;5088290;28;20028;-79
2020/12/28 10:22:59;;;;;;;16.23;8.77;;;;;;;3.35;92.65;97791.91;5086611;28;20031;-79
2020/12/28 10:25:25;;;;;;;21.60;9.10;;;;;;;3.42;91.92;97788.53;5067070;28;20278;-79
2020/12/28 10:27:50;;;;;;;14.07;7.90;;;;;;;3.56;92.11;97784.34;5089465;28;20477;-79
2020/12/28 10:30:15;;;;;;;20.60;7.47;;;;;;;3.71;91.66;97779.31;5065616;28;20114;-79
2020/12/28 10:32:40;;;;;;;15.73;7.50;;;;;;;3.85;91.59;97774.22;5068809;28;20259;-77
2020/12/28 10:35:06;;;;;;;10.40;4.30;;;;;;;3.95;89.24;97770.88;5088948;28;20024;-77
2020/12/28 10:37:31;;;;;;;10.03;3.77;;;;;;;4.07;88.99;97772.56;5061119;28;20027;-79
2020/12/28 10:39:56;;;;;;;8.40;3.20;;;;;;;3.90;87.29;97761.53;5069896;28;20274;-79
2020/12/28 10:42:21;;;;;;;11.63;4.47;;;;;;;3.89;88.54;97760.69;5086486;28;20027;-80
2020/12/28 10:44:47;;;;;;;8.50;3.80;;;;;;;4.02;88.09;97757.31;5070898;28;20046;-78
2020/12/28 10:47:12;;;;;;;10.57;3.47;;;;;;;4.00;87.17;97750.56;5061686;28;20278;-80
2020/12/28 10:49:37;;;;;;;13.47;4.00;;;;;;;4.04;87.65;97752.25;5082273;28;20274;-80
2020/12/28 10:52:03;;;;;;;12.47;4.33;;;;;;;4.02;87.39;97754.78;5073298;28;20069;-78
2020/12/28 10:54:28;;;;;;;18.02;3.25;;;;;;;4.08;86.94;97751.41;5067645;28;20043;-79
2020/12/28 10:56:55;;;;;;;10.33;3.13;;;;;;;4.22;86.67;97746.28;5069492;28;20064;-79
2020/12/28 10:59:20;;;;;;;9.40;3.20;;;;;;;4.56;86.13;97752.19;5072712;28;20273;-79
2020/12/28 11:01:46;;;;;;;6.00;3.30;;;;;;;4.63;84.76;97751.31;5071328;28;20395;-79
2020/12/28 11:04:11;;;;;;;9.77;4.53;;;;;;;4.98;84.04;97757.16;5088153;28;20098;-81
2020/12/28 11:06:40;;;;;;;9.93;3.37;;;;;;;5.32;81.85;97747.66;5070327;28;20342;-79
2020/12/28 11:09:05;;;;;;;10.33;5.47;;;;;;;5.50;82.29;97746.69;5067044;28;20020;-79
2020/12/28 11:11:30;;;;;;;10.60;4.23;;;;;;;5.85;80.39;97748.16;5065472;28;20445;-80
2020/12/28 11:13:56;;;;;;;6.77;3.00;;;;;;;5.27;81.27;97739.22;5070096;28;20050;-81
2020/12/28 11:16:25;;;;;;;12.43;3.80;;;;;;;4.91;83.86;97750.41;5089693;28;20302;-81
2020/12/28 11:18:50;;;;;;;12.37;3.10;;;;;;;4.81;84.17;97748.72;5071230;28;20035;-80
2020/12/28 11:21:15;;;;;;;15.23;2.93;;;;;;;4.63;84.50;97753.88;5086061;28;20024;-79
2020/12/28 11:23:59;;;;;;;5.97;3.00;;;;;;;4.34;85.40;97746.28;5072479;28;20682;-80
2020/12/28 11:26:26;;;;;;;11.30;3.47;;;;;;;4.19;85.89;97744.59;5068020;28;20144;-80